createdAt,value
2018-05-24T00:00:41.367Z,99.20
2018-05-24T00:03:10.327Z,99.70
2018-05-24T00:05:40.081Z,99.70
2018-05-24T00:08:08.295Z,99.60
2018-05-24T00:10:36.615Z,99.40
2018-05-24T00:13:05.054Z,99.70
2018-05-24T00:15:33.854Z,99.30
2018-05-24T00:18:02.078Z,99.20
2018-05-24T00:20:30.307Z,99.60
2018-05-24T00:22:58.568Z,99.20
2018-05-24T00:25:26.777Z,99.40
2018-05-24T00:27:54.973Z,99.50
2018-05-24T00:30:23.945Z,99.80
2018-05-24T00:32:52.144Z,99.80
2018-05-24T00:35:21.120Z,99.90
2018-05-24T00:37:49.324Z,99.90
2018-05-24T00:40:17.543Z,99.80
2018-05-24T00:42:45.800Z,99.90
2018-05-24T00:45:14.007Z,99.90
2018-05-24T00:47:43.710Z,99.90
2018-05-24T00:50:11.927Z,99.90
2018-05-24T00:52:40.239Z,99.90
2018-05-24T00:58:11.203Z,99.90
2018-05-24T01:00:39.428Z,99.90
2018-05-24T01:03:08.386Z,99.90
2018-05-24T01:05:36.601Z,99.90
2018-05-24T01:08:05.562Z,99.90
2018-05-24T01:10:33.764Z,99.90
2018-05-24T01:13:02.734Z,99.90
2018-05-24T01:15:30.945Z,99.90
2018-05-24T01:17:59.182Z,99.90
2018-05-24T01:20:27.397Z,99.90
2018-05-24T01:22:56.362Z,99.90
2018-05-24T01:25:24.574Z,99.90
2018-05-24T01:27:52.808Z,99.90
2018-05-24T01:30:20.991Z,99.90
2018-05-24T01:32:49.331Z,99.90
2018-05-24T01:35:17.511Z,99.90
2018-05-24T01:37:51.524Z,99.90
2018-05-24T01:40:19.736Z,99.90
2018-05-24T01:42:47.974Z,99.90
2018-05-24T01:45:16.164Z,99.90
2018-05-24T01:47:44.384Z,99.90
2018-05-24T01:50:12.571Z,99.90
2018-05-24T01:52:40.870Z,99.90
2018-05-24T01:55:09.076Z,99.90
2018-05-24T01:57:38.063Z,99.90
2018-05-24T02:00:06.255Z,99.90
2018-05-24T02:02:35.238Z,99.90
2018-05-24T02:05:03.438Z,99.90
2018-05-24T02:07:31.658Z,99.90
2018-05-24T02:09:59.851Z,99.90
2018-05-24T02:12:28.243Z,99.90
2018-05-24T02:14:56.425Z,99.90
2018-05-24T02:17:25.408Z,99.90
2018-05-24T02:19:53.647Z,99.90
2018-05-24T02:22:22.658Z,99.90
2018-05-24T02:24:50.872Z,99.90
2018-05-24T02:27:19.838Z,99.90
2018-05-24T02:29:48.063Z,99.90
2018-05-24T02:32:16.260Z,99.90
2018-05-24T02:34:44.484Z,99.90
2018-05-24T02:37:13.448Z,99.90
2018-05-24T02:39:41.659Z,99.90
2018-05-24T02:42:09.888Z,99.90
2018-05-24T02:44:39.627Z,99.90
2018-05-24T02:47:07.816Z,99.90
2018-05-24T02:49:36.031Z,99.90
2018-05-24T02:52:04.336Z,99.90
2018-05-24T02:54:32.558Z,99.90
2018-05-24T02:57:00.739Z,99.90
2018-05-24T02:59:28.957Z,99.90
2018-05-24T03:01:57.160Z,99.90
2018-05-24T03:04:26.143Z,99.90
2018-05-24T03:06:54.345Z,99.90
2018-05-24T03:09:22.548Z,99.90
2018-05-24T03:11:50.855Z,99.90
2018-05-24T03:14:19.862Z,99.90
2018-05-24T03:16:48.923Z,99.90
2018-05-24T03:19:17.138Z,99.90
2018-05-24T03:21:45.359Z,99.90
2018-05-24T03:24:13.578Z,99.90
2018-05-24T03:26:41.771Z,99.90
2018-05-24T03:29:10.751Z,99.90
2018-05-24T03:31:39.103Z,99.90
2018-05-24T03:34:07.317Z,99.90
2018-05-24T03:36:36.278Z,99.90
2018-05-24T03:39:04.499Z,99.90
2018-05-24T03:41:33.467Z,99.90
2018-05-24T03:44:02.452Z,99.90
2018-05-24T03:46:32.584Z,99.90
2018-05-24T03:49:01.577Z,99.90
2018-05-24T03:51:29.824Z,99.90
2018-05-24T03:53:58.843Z,99.90
2018-05-24T03:56:27.056Z,99.90
2018-05-24T04:02:09.034Z,99.90
2018-05-24T04:04:49.099Z,99.90
2018-05-24T04:07:18.050Z,99.90
2018-05-24T04:09:46.361Z,99.90
2018-05-24T04:12:14.559Z,99.90
2018-05-24T04:14:42.768Z,99.90
2018-05-24T04:17:10.971Z,99.90
2018-05-24T04:19:39.192Z,99.90
2018-05-24T04:22:07.496Z,99.90
2018-05-24T04:24:35.737Z,99.90
2018-05-24T04:27:03.966Z,99.90
2018-05-24T04:29:32.396Z,99.90
2018-05-24T04:32:00.727Z,99.90
2018-05-24T04:34:28.937Z,99.90
2018-05-24T04:36:57.149Z,99.90
2018-05-24T04:39:25.381Z,99.90
2018-05-24T04:41:54.364Z,99.90
2018-05-24T04:44:23.330Z,99.90
2018-05-24T04:46:57.628Z,99.90
2018-05-24T04:49:25.859Z,99.90
2018-05-24T04:51:54.295Z,99.90
2018-05-24T04:54:22.488Z,99.90
2018-05-24T04:56:50.712Z,99.90
2018-05-24T04:59:18.926Z,99.90
2018-05-24T05:01:47.329Z,99.90
2018-05-24T05:04:16.684Z,99.90
2018-05-24T05:06:44.904Z,99.90
2018-05-24T05:09:15.431Z,99.90
2018-05-24T05:11:43.883Z,99.90
2018-05-24T05:14:12.098Z,99.90
2018-05-24T05:16:42.321Z,99.90
2018-05-24T05:19:11.424Z,99.90
2018-05-24T05:21:39.786Z,99.90
2018-05-24T05:24:07.992Z,99.90
2018-05-24T05:26:36.200Z,99.90
2018-05-24T05:29:04.393Z,99.90
2018-05-24T05:31:32.684Z,99.90
2018-05-24T05:34:00.878Z,99.90
2018-05-24T05:36:29.856Z,99.90
2018-05-24T05:38:58.046Z,99.90
2018-05-24T05:41:27.445Z,99.90
2018-05-24T05:43:57.021Z,99.90
2018-05-24T05:46:25.578Z,99.90
2018-05-24T05:48:54.216Z,99.90
2018-05-24T05:51:23.002Z,99.90
2018-05-24T05:53:51.891Z,98.70
2018-05-24T05:56:20.369Z,98.50
2018-05-24T05:58:49.426Z,99.00
2018-05-24T06:01:17.685Z,98.90
2018-05-24T06:03:47.211Z,97.60
2018-05-24T06:06:17.020Z,96.00
2018-05-24T06:08:45.246Z,95.60
2018-05-24T06:11:13.448Z,96.70
2018-05-24T06:13:43.317Z,95.90
2018-05-24T06:16:11.526Z,96.10
2018-05-24T06:18:39.739Z,96.80
2018-05-24T06:21:07.929Z,96.40
2018-05-24T06:23:36.139Z,95.70
2018-05-24T06:26:04.343Z,95.20
2018-05-24T06:28:32.641Z,95.90
2018-05-24T06:31:00.904Z,95.50
2018-05-24T06:33:29.140Z,96.00
2018-05-24T06:35:57.331Z,96.00
2018-05-24T06:38:25.547Z,95.80
2018-05-24T06:40:53.804Z,95.80
2018-05-24T06:43:22.029Z,95.40
2018-05-24T06:45:51.088Z,96.20
2018-05-24T06:48:19.335Z,96.20
2018-05-24T06:50:47.515Z,95.70
2018-05-24T06:53:15.760Z,95.80
2018-05-24T06:55:43.953Z,95.20
2018-05-24T06:58:12.187Z,94.50
2018-05-24T07:00:40.378Z,94.50
2018-05-24T07:03:09.373Z,94.80
2018-05-24T07:05:37.567Z,94.80
2018-05-24T07:08:05.776Z,94.80
2018-05-24T07:10:33.958Z,94.60
2018-05-24T07:13:02.162Z,94.40
2018-05-24T07:15:30.634Z,94.50
2018-05-24T07:18:01.244Z,94.40
2018-05-24T07:20:29.728Z,93.40
2018-05-24T07:22:58.227Z,93.50
2018-05-24T07:25:28.136Z,93.10
2018-05-24T07:27:56.718Z,93.10
2018-05-24T07:30:26.065Z,93.50
2018-05-24T07:32:56.029Z,93.30
2018-05-24T07:35:25.333Z,92.50
2018-05-24T07:37:53.814Z,92.50
2018-05-24T07:40:22.084Z,92.30
2018-05-24T07:42:50.283Z,92.30
2018-05-24T07:45:18.781Z,92.30
2018-05-24T07:47:46.970Z,92.50
2018-05-24T07:50:15.207Z,90.50
2018-05-24T07:52:43.418Z,90.00
2018-05-24T07:55:11.714Z,90.00
2018-05-24T07:57:40.219Z,88.40
2018-05-24T08:00:08.451Z,87.20
2018-05-24T08:02:36.719Z,87.40
2018-05-24T08:05:04.929Z,89.80
2018-05-24T08:07:33.533Z,90.10
2018-05-24T08:10:02.890Z,88.00
2018-05-24T08:12:31.508Z,88.80
2018-05-24T08:15:00.809Z,88.00
2018-05-24T08:17:29.063Z,88.00
2018-05-24T08:19:57.639Z,86.90
2018-05-24T08:22:25.869Z,88.20
2018-05-24T08:24:54.359Z,87.60
2018-05-24T08:27:22.795Z,89.40
2018-05-24T08:29:52.401Z,90.30
2018-05-24T08:32:21.935Z,90.20
2018-05-24T08:34:50.487Z,90.20
2018-05-24T08:37:19.070Z,90.80
2018-05-24T08:39:48.161Z,89.40
2018-05-24T08:42:17.464Z,90.00
2018-05-24T08:44:45.775Z,89.80
2018-05-24T08:47:14.041Z,91.00
2018-05-24T08:49:42.340Z,90.50
2018-05-24T08:52:10.632Z,90.20
2018-05-24T08:54:39.143Z,89.60
2018-05-24T08:57:08.545Z,90.60
2018-05-24T08:59:37.230Z,90.60
2018-05-24T09:02:05.810Z,90.40
2018-05-24T09:04:35.007Z,90.10
2018-05-24T09:07:04.104Z,90.70
2018-05-24T09:09:32.393Z,90.60
2018-05-24T09:12:01.986Z,88.70
2018-05-24T09:14:30.569Z,88.70
2018-05-24T09:16:58.778Z,90.00
2018-05-24T09:19:27.326Z,88.70
2018-05-24T09:21:56.089Z,86.60
2018-05-24T09:24:24.342Z,86.20
2018-05-24T09:26:52.631Z,85.30
2018-05-24T09:29:20.929Z,84.80
2018-05-24T09:31:49.411Z,85.10
2018-05-24T09:34:18.709Z,83.70
2018-05-24T09:36:47.291Z,83.60
2018-05-24T09:39:15.760Z,82.20
2018-05-24T09:41:43.984Z,82.20
2018-05-24T09:44:13.227Z,78.50
2018-05-24T09:46:41.830Z,78.50
2018-05-24T09:49:10.303Z,78.00
2018-05-24T09:51:39.709Z,81.30
2018-05-24T09:54:08.870Z,80.00
2018-05-24T09:56:37.075Z,80.00
2018-05-24T09:59:05.299Z,80.90
2018-05-24T10:01:33.541Z,81.50
2018-05-24T10:04:02.501Z,80.50
2018-05-24T10:06:31.610Z,76.00
2018-05-24T10:08:59.931Z,76.00
2018-05-24T10:11:28.167Z,77.10
2018-05-24T10:13:56.352Z,75.90
2018-05-24T10:16:25.375Z,74.10
2018-05-24T10:18:54.328Z,73.40
2018-05-24T10:21:22.532Z,73.50
2018-05-24T10:23:50.722Z,75.10
2018-05-24T10:26:19.256Z,72.90
2018-05-24T10:28:47.703Z,73.40
2018-05-24T10:31:15.909Z,75.00
2018-05-24T10:33:44.980Z,72.80
2018-05-24T10:36:13.487Z,72.80
2018-05-24T10:38:44.108Z,74.70
2018-05-24T10:41:12.590Z,74.70
2018-05-24T10:43:41.173Z,72.50
2018-05-24T10:46:09.552Z,72.90
2018-05-24T10:48:38.636Z,72.40
2018-05-24T10:51:06.896Z,72.30
2018-05-24T10:53:35.909Z,70.40
2018-05-24T10:56:04.135Z,70.30
2018-05-24T10:58:32.331Z,70.20
2018-05-24T11:01:00.523Z,68.20
2018-05-24T11:03:28.719Z,68.90
2018-05-24T11:05:57.666Z,66.50
2018-05-24T11:08:25.958Z,66.40
2018-05-24T11:10:54.145Z,66.70
2018-05-24T11:13:22.343Z,68.20
2018-05-24T11:15:51.328Z,64.00
2018-05-24T11:18:20.295Z,64.80
2018-05-24T11:20:48.486Z,64.80
2018-05-24T11:23:16.679Z,69.60
2018-05-24T11:25:44.863Z,64.30
2018-05-24T11:28:13.070Z,64.00
2018-05-24T11:30:41.248Z,62.40
2018-05-24T11:33:09.460Z,61.40
2018-05-24T11:35:38.427Z,62.10
2018-05-24T11:38:06.639Z,62.00
2018-05-24T11:40:35.586Z,62.40
2018-05-24T11:43:04.823Z,62.40
2018-05-24T11:45:33.915Z,59.90
2018-05-24T11:48:02.489Z,59.80
2018-05-24T11:50:31.789Z,63.80
2018-05-24T11:53:00.266Z,63.70
2018-05-24T11:55:28.611Z,61.10
2018-05-24T11:57:57.470Z,59.60
2018-05-24T12:00:26.174Z,63.90
2018-05-24T12:02:54.974Z,62.40
2018-05-24T12:05:23.312Z,59.60
2018-05-24T12:07:51.594Z,61.30
2018-05-24T12:10:19.800Z,59.40
2018-05-24T12:12:48.012Z,58.80
2018-05-24T12:15:17.769Z,59.10
2018-05-24T12:17:50.612Z,56.30
2018-05-24T12:20:19.595Z,56.90
2018-05-24T12:22:48.885Z,57.40
2018-05-24T12:25:17.970Z,59.50
2018-05-24T12:27:46.151Z,59.40
2018-05-24T12:30:14.675Z,54.70
2018-05-24T12:32:43.316Z,54.80
2018-05-24T12:35:12.061Z,54.40
2018-05-24T12:37:40.581Z,54.50
2018-05-24T12:40:08.886Z,55.00
2018-05-24T12:42:37.919Z,57.10
2018-05-24T12:45:06.152Z,57.10
2018-05-24T12:47:34.452Z,58.20
2018-05-24T12:50:02.983Z,58.10
2018-05-24T12:52:32.279Z,55.70
2018-05-24T12:55:00.798Z,55.80
2018-05-24T12:57:30.918Z,56.40
2018-05-24T12:59:59.241Z,56.30
2018-05-24T13:02:28.231Z,52.70
2018-05-24T13:04:56.437Z,52.70
2018-05-24T13:07:25.396Z,52.60
2018-05-24T13:09:53.650Z,52.50
2018-05-24T13:12:22.543Z,51.70
2018-05-24T13:14:50.758Z,51.80
2018-05-24T13:17:18.946Z,53.60
2018-05-24T13:19:47.145Z,53.30
2018-05-24T13:22:15.370Z,53.20
2018-05-24T13:24:44.674Z,50.70
2018-05-24T13:27:13.457Z,50.70
2018-05-24T13:29:43.068Z,52.90
2018-05-24T13:32:12.046Z,53.00
2018-05-24T13:34:40.356Z,53.00
2018-05-24T13:37:08.800Z,53.60
2018-05-24T13:39:37.039Z,52.80
2018-05-24T13:42:05.231Z,52.60
2018-05-24T13:44:33.399Z,51.90
2018-05-24T13:47:01.596Z,50.40
2018-05-24T13:49:30.115Z,52.00
2018-05-24T13:51:59.076Z,52.50
2018-05-24T13:54:27.353Z,52.50
2018-05-24T13:56:56.314Z,52.50
2018-05-24T13:59:24.499Z,50.40
2018-05-24T14:01:52.725Z,48.20
2018-05-24T14:04:20.907Z,50.70
2018-05-24T14:06:49.230Z,50.80
2018-05-24T14:09:17.412Z,52.20
2018-05-24T14:11:45.628Z,50.20
2018-05-24T14:14:13.804Z,53.50
2018-05-24T14:16:42.028Z,53.10
2018-05-24T14:19:10.206Z,51.90
2018-05-24T14:21:38.412Z,52.70
2018-05-24T14:24:07.355Z,49.50
2018-05-24T14:26:35.646Z,49.50
2018-05-24T14:29:03.828Z,49.10
2018-05-24T14:31:32.039Z,47.50
2018-05-24T14:34:00.995Z,49.00
2018-05-24T14:36:29.234Z,49.00
2018-05-24T14:38:57.415Z,49.80
2018-05-24T14:41:25.639Z,50.60
2018-05-24T14:43:53.850Z,50.20
2018-05-24T14:46:22.036Z,50.40
2018-05-24T14:48:50.245Z,48.00
2018-05-24T14:51:18.440Z,49.60
2018-05-24T14:53:47.522Z,48.20
2018-05-24T14:56:15.686Z,48.20
2018-05-24T14:58:43.972Z,49.50
2018-05-24T15:01:12.139Z,48.00
2018-05-24T15:03:40.344Z,50.70
2018-05-24T15:06:08.539Z,49.70
2018-05-24T15:08:36.736Z,48.80
2018-05-24T15:11:04.918Z,48.30
2018-05-24T15:13:44.839Z,48.00
2018-05-24T15:16:13.012Z,46.50
2018-05-24T15:18:41.211Z,48.80
2018-05-24T15:21:09.383Z,50.30
2018-05-24T15:23:37.591Z,49.40
2018-05-24T15:26:05.795Z,48.40
2018-05-24T15:28:34.024Z,48.60
2018-05-24T15:31:02.219Z,48.70
2018-05-24T15:33:30.492Z,48.60
2018-05-24T15:35:58.664Z,47.80
2018-05-24T15:38:27.179Z,48.20
2018-05-24T15:40:56.136Z,47.40
2018-05-24T15:43:24.327Z,47.40
2018-05-24T15:45:53.271Z,46.80
2018-05-24T15:48:21.477Z,46.80
2018-05-24T15:50:49.656Z,46.60
2018-05-24T15:53:17.857Z,45.60
2018-05-24T15:55:46.052Z,46.70
2018-05-24T15:58:14.268Z,47.50
2018-05-24T16:00:42.452Z,51.60
2018-05-24T16:03:10.647Z,50.90
2018-05-24T16:05:38.957Z,51.50
2018-05-24T16:08:07.160Z,54.10
2018-05-24T16:10:35.380Z,52.50
2018-05-24T16:13:04.320Z,55.10
2018-05-24T16:15:32.585Z,54.40
2018-05-24T16:18:00.776Z,52.30
2018-05-24T16:20:28.998Z,52.90
2018-05-24T16:22:57.936Z,52.70
2018-05-24T16:25:26.138Z,52.70
2018-05-24T16:27:54.320Z,54.40
2018-05-24T16:30:22.539Z,51.80
2018-05-24T16:32:50.754Z,53.80
2018-05-24T16:35:19.202Z,55.70
2018-05-24T16:37:47.387Z,51.30
2018-05-24T16:40:15.593Z,50.00
2018-05-24T16:42:43.770Z,49.40
2018-05-24T16:45:12.729Z,49.30
2018-05-24T16:47:41.958Z,50.90
2018-05-24T16:50:10.159Z,50.90
2018-05-24T16:52:39.104Z,51.40
2018-05-24T16:55:07.312Z,51.40
2018-05-24T16:57:36.288Z,50.90
2018-05-24T17:00:04.497Z,50.80
2018-05-24T17:02:33.444Z,51.70
2018-05-24T17:05:01.644Z,51.70
2018-05-24T17:07:30.608Z,51.00
2018-05-24T17:09:58.800Z,50.50
2018-05-24T17:12:27.025Z,52.00
2018-05-24T17:14:55.337Z,51.60
2018-05-24T17:17:23.518Z,52.60
2018-05-24T17:19:51.723Z,53.10
2018-05-24T17:22:20.686Z,51.60
2018-05-24T17:24:48.971Z,51.60
2018-05-24T17:27:18.926Z,51.10
2018-05-24T17:29:47.194Z,51.10
2018-05-24T17:32:15.400Z,49.90
2018-05-24T17:34:43.603Z,50.20
2018-05-24T17:37:11.804Z,52.70
2018-05-24T17:39:41.407Z,51.50
2018-05-24T17:42:09.632Z,51.40
2018-05-24T17:44:37.891Z,51.90
2018-05-24T17:47:06.091Z,53.10
2018-05-24T17:49:34.274Z,52.40
2018-05-24T17:52:02.481Z,52.50
2018-05-24T17:54:30.706Z,55.10
2018-05-24T17:56:58.911Z,59.70
2018-05-24T17:59:27.122Z,61.50
2018-05-24T18:01:55.329Z,62.30
2018-05-24T18:04:23.535Z,65.00
2018-05-24T18:06:51.765Z,68.00
2018-05-24T18:09:19.971Z,66.60
2018-05-24T18:11:49.708Z,69.30
2018-05-24T18:14:18.044Z,69.30
2018-05-24T18:16:46.259Z,69.60
2018-05-24T18:19:14.537Z,70.20
2018-05-24T18:21:42.747Z,72.00
2018-05-24T18:24:12.241Z,73.90
2018-05-24T18:26:40.448Z,73.30
2018-05-24T18:29:08.640Z,63.90
2018-05-24T18:31:36.841Z,61.90
2018-05-24T18:34:05.012Z,62.20
2018-05-24T18:36:33.233Z,63.00
2018-05-24T18:39:01.416Z,63.50
2018-05-24T18:41:29.617Z,63.60
2018-05-24T18:43:57.807Z,64.30
2018-05-24T18:46:26.799Z,64.60
2018-05-24T18:48:54.991Z,64.50
2018-05-24T18:51:23.968Z,66.20
2018-05-24T18:53:52.205Z,66.10
2018-05-24T18:56:20.403Z,66.40
2018-05-24T18:58:48.597Z,67.70
2018-05-24T19:01:16.811Z,68.80
2018-05-24T19:03:45.113Z,70.20
2018-05-24T19:06:13.324Z,69.50
2018-05-24T19:08:41.523Z,69.10
2018-05-24T19:11:10.471Z,68.80
2018-05-24T19:13:38.695Z,68.70
2018-05-24T19:16:06.878Z,70.00
2018-05-24T19:18:35.096Z,71.20
2018-05-24T19:21:03.291Z,71.30
2018-05-24T19:23:32.258Z,71.20
2018-05-24T19:26:00.443Z,71.20
2018-05-24T19:28:28.647Z,72.00
2018-05-24T19:30:57.596Z,73.00
2018-05-24T19:33:25.868Z,73.00
2018-05-24T19:35:54.042Z,74.60
2018-05-24T19:38:22.263Z,78.10
2018-05-24T19:40:51.221Z,75.70
2018-05-24T19:43:19.435Z,75.60
2018-05-24T19:45:48.388Z,72.20
2018-05-24T19:48:16.596Z,72.20
2018-05-24T19:50:45.555Z,78.20
2018-05-24T19:53:13.824Z,78.20
2018-05-24T19:55:42.000Z,78.20
2018-05-24T19:58:10.216Z,79.10
2018-05-24T20:00:39.175Z,82.10
2018-05-24T20:03:07.459Z,82.00
2018-05-24T20:05:35.641Z,81.60
2018-05-24T20:08:03.846Z,82.50
2018-05-24T20:10:32.036Z,85.50
2018-05-24T20:13:00.306Z,86.20
2018-05-24T20:15:28.444Z,85.40
2018-05-24T20:17:57.435Z,82.10
2018-05-24T20:20:25.623Z,82.20
2018-05-24T20:22:53.991Z,82.30
2018-05-24T20:25:22.267Z,83.90
2018-05-24T20:27:50.465Z,83.50
2018-05-24T20:30:19.427Z,83.70
2018-05-24T20:32:47.689Z,83.70
2018-05-24T20:35:15.885Z,84.40
2018-05-24T20:37:44.057Z,85.80
2018-05-24T20:40:12.260Z,86.70
2018-05-24T20:42:40.996Z,87.40
2018-05-24T20:45:09.211Z,88.20
2018-05-24T20:47:38.168Z,89.70
2018-05-24T20:50:06.372Z,89.70
2018-05-24T20:52:34.689Z,90.00
2018-05-24T20:55:02.887Z,89.50
2018-05-24T20:57:31.089Z,90.10
2018-05-24T21:00:00.084Z,90.60
2018-05-24T21:02:28.440Z,90.60
2018-05-24T21:04:58.150Z,90.60
2018-05-24T21:07:27.869Z,90.90
2018-05-24T21:09:56.089Z,90.90
2018-05-24T21:12:24.380Z,91.00
2018-05-24T21:14:52.584Z,91.00
2018-05-24T21:17:20.762Z,90.90
2018-05-24T21:19:48.984Z,91.60
2018-05-24T21:22:17.168Z,91.90
2018-05-24T21:24:45.379Z,91.60
2018-05-24T21:27:13.572Z,91.20
2018-05-24T21:29:41.779Z,91.20
2018-05-24T21:32:10.084Z,91.30
2018-05-24T21:34:38.292Z,91.30
2018-05-24T21:37:06.482Z,91.60
2018-05-24T21:39:34.683Z,91.50
2018-05-24T21:42:03.038Z,92.20
2018-05-24T21:44:32.029Z,92.90
2018-05-24T21:47:00.204Z,92.90
2018-05-24T21:49:29.192Z,93.60
2018-05-24T21:51:58.140Z,93.20
2018-05-24T21:54:26.878Z,93.20
2018-05-24T21:56:55.084Z,92.80
2018-05-24T21:59:23.302Z,92.50
2018-05-24T22:01:51.767Z,92.30
2018-05-24T22:04:19.984Z,92.30
2018-05-24T22:06:48.959Z,92.50
2018-05-24T22:09:17.144Z,92.50
2018-05-24T22:11:45.387Z,92.70
2018-05-24T22:14:13.584Z,92.90
2018-05-24T22:16:41.784Z,93.00
2018-05-24T22:19:10.751Z,93.10
2018-05-24T22:21:38.965Z,93.10
2018-05-24T22:24:07.172Z,93.30
2018-05-24T22:26:35.376Z,93.40
2018-05-24T22:29:03.565Z,93.30
2018-05-24T22:31:31.824Z,93.60
2018-05-24T22:34:00.002Z,93.60
2018-05-24T22:36:29.729Z,92.90
2018-05-24T22:38:59.424Z,93.30
2018-05-24T22:41:27.891Z,93.30
2018-05-24T22:43:56.099Z,93.60
2018-05-24T22:46:25.072Z,94.20
2018-05-24T22:48:53.255Z,94.20
2018-05-24T22:51:21.520Z,94.40
2018-05-24T22:53:50.046Z,94.00
2018-05-24T22:56:19.011Z,94.70
2018-05-24T22:58:47.967Z,94.60
2018-05-24T23:01:16.192Z,94.60
2018-05-24T23:03:45.143Z,93.60
2018-05-24T23:06:13.363Z,93.90
2018-05-24T23:08:42.328Z,93.50
2018-05-24T23:11:10.544Z,93.50
2018-05-24T23:13:38.732Z,93.90
2018-05-24T23:16:06.936Z,94.30
2018-05-24T23:18:35.115Z,94.40
2018-05-24T23:21:03.341Z,93.50
2018-05-24T23:23:31.523Z,94.40
2018-05-24T23:25:59.739Z,95.20
2018-05-24T23:28:27.947Z,95.00
2018-05-24T23:30:56.928Z,95.10
2018-05-24T23:33:25.909Z,95.30
2018-05-24T23:35:54.123Z,95.30
2018-05-24T23:38:22.344Z,95.20
2018-05-24T23:40:50.617Z,95.40
2018-05-24T23:43:18.832Z,95.20
2018-05-24T23:45:47.784Z,94.70
2018-05-24T23:48:15.993Z,94.70
2018-05-24T23:50:44.240Z,95.00
2018-05-24T23:53:12.461Z,94.60
2018-05-24T23:55:41.405Z,94.20
2018-05-24T23:58:09.712Z,94.20
